Time;durP1;ratioP1;P1;durP2;ratioP2;P2;SDS_P1;SDS_P2;PMS_P1;PMS_P2;Temp;Humidity;BMP_temperature;BMP_pressure;BME280_temperature;BME280_humidity;BME280_pressure;Samples;Min_cycle;Max_cycle;Signal;HPM_P1;HPM_P2
2022/01/07 00:01:20;;;;;;;7.57;4.90;;;2.90;99.90;;;;;;4992775;28;20199;-67
2022/01/07 00:03:47;;;;;;;8.17;4.83;;;2.90;99.90;;;;;;4993334;28;20682;-65
2022/01/07 00:06:13;;;;;;;7.43;4.97;;;2.90;99.90;;;;;;4993026;28;20551;-66
2022/01/07 00:08:40;;;;;;;11.00;5.37;;;2.90;99.90;;;;;;4992856;28;20274;-67
2022/01/07 00:11:07;;;;;;;7.20;4.70;;;2.90;99.90;;;;;;4992939;28;20668;-67
2022/01/07 00:13:35;;;;;;;6.77;5.17;;;2.90;99.90;;;;;;4992583;28;20216;-68
2022/01/07 00:16:02;;;;;;;7.20;5.13;;;2.90;99.90;;;;;;4992691;28;20211;-66
2022/01/07 00:18:29;;;;;;;7.80;5.47;;;2.90;99.90;;;;;;4992602;28;20204;-68
2022/01/07 00:20:57;;;;;;;7.53;5.23;;;2.90;99.90;;;;;;4992576;28;20207;-67
2022/01/07 00:23:24;;;;;;;6.20;4.77;;;2.90;99.90;;;;;;4992715;28;20203;-66
2022/01/07 00:25:50;;;;;;;7.80;4.93;;;2.90;99.90;;;;;;4992858;28;20215;-68
2022/01/07 00:28:17;;;;;;;8.03;4.80;;;2.90;99.90;;;;;;4992535;28;20227;-67
2022/01/07 00:30:46;;;;;;;9.07;5.10;;;2.90;99.90;;;;;;4992452;28;20207;-67
2022/01/07 00:33:13;;;;;;;7.07;4.30;;;2.90;99.90;;;;;;4992759;28;20217;-66
2022/01/07 00:35:40;;;;;;;6.80;4.50;;;2.90;99.90;;;;;;4992153;28;20271;-67
2022/01/07 00:38:07;;;;;;;6.63;4.20;;;2.90;99.90;;;;;;4992221;28;20203;-69
2022/01/07 00:40:34;;;;;;;5.67;4.40;;;2.90;99.90;;;;;;4992201;28;20207;-67
2022/01/07 00:43:01;;;;;;;5.33;3.87;;;2.90;99.90;;;;;;4992736;28;20568;-68
2022/01/07 00:45:28;;;;;;;6.30;4.23;;;2.90;99.90;;;;;;4992404;28;20231;-67
2022/01/07 00:47:57;;;;;;;5.47;4.10;;;2.90;99.90;;;;;;4992187;28;20226;-68
2022/01/07 00:50:26;;;;;;;6.87;4.47;;;2.90;99.90;;;;;;4992415;28;20652;-67
2022/01/07 00:52:53;;;;;;;6.40;4.47;;;2.90;99.90;;;;;;4992217;28;20647;-68
2022/01/07 00:55:20;;;;;;;7.27;4.57;;;2.90;99.90;;;;;;4992404;28;20209;-67
2022/01/07 00:57:48;;;;;;;6.80;4.30;;;2.90;99.90;;;;;;4992384;28;20210;-66
2022/01/07 01:00:17;;;;;;;6.50;4.17;;;2.90;99.90;;;;;;4991910;28;20330;-65
2022/01/07 01:02:45;;;;;;;6.13;4.07;;;2.90;99.90;;;;;;4992449;28;20536;-67
2022/01/07 01:05:14;;;;;;;5.43;3.80;;;2.90;99.90;;;;;;4992379;28;20204;-67
2022/01/07 01:07:42;;;;;;;5.13;3.90;;;2.80;99.90;;;;;;4991844;28;20238;-67
2022/01/07 01:10:11;;;;;;;5.17;4.13;;;2.80;99.90;;;;;;4992313;28;20749;-69
2022/01/07 01:12:42;;;;;;;6.07;4.10;;;2.80;99.90;;;;;;4992441;28;20211;-67
2022/01/07 01:15:11;;;;;;;5.07;3.87;;;2.80;99.90;;;;;;4992053;28;20213;-66
2022/01/07 01:17:38;;;;;;;5.60;3.67;;;2.80;99.90;;;;;;4992080;28;20199;-67
2022/01/07 01:20:08;;;;;;;5.70;3.60;;;2.80;99.90;;;;;;4992525;28;20624;-67
2022/01/07 01:22:36;;;;;;;5.20;3.63;;;2.80;99.90;;;;;;4992289;28;20204;-68
2022/01/07 01:25:04;;;;;;;5.47;4.00;;;2.80;99.90;;;;;;4992105;28;20211;-67
2022/01/07 01:27:31;;;;;;;4.77;3.20;;;2.80;99.90;;;;;;4992172;28;20227;-67
2022/01/07 01:29:58;;;;;;;5.17;3.70;;;2.80;99.90;;;;;;4992050;28;20653;-67
2022/01/07 01:32:25;;;;;;;5.93;3.97;;;2.90;99.90;;;;;;4991977;28;20207;-67
2022/01/07 01:34:52;;;;;;;4.47;3.60;;;2.90;99.90;;;;;;4992096;28;20604;-67
2022/01/07 01:37:18;;;;;;;6.30;3.83;;;2.80;99.90;;;;;;4992227;28;20203;-66
2022/01/07 01:39:47;;;;;;;7.50;4.03;;;2.80;99.90;;;;;;4991902;28;20207;-68
2022/01/07 01:42:13;;;;;;;5.63;4.10;;;2.80;99.90;;;;;;4991836;28;20216;-66
2022/01/07 01:44:40;;;;;;;6.30;4.40;;;2.90;99.90;;;;;;4991570;28;20235;-67
2022/01/07 01:47:07;;;;;;;5.10;4.03;;;2.80;99.90;;;;;;4991704;28;20223;-67
2022/01/07 01:49:34;;;;;;;5.73;4.13;;;2.80;99.90;;;;;;4991739;28;20234;-66
2022/01/07 01:52:01;;;;;;;5.23;3.70;;;2.80;99.90;;;;;;4991883;28;20208;-67
2022/01/07 01:54:28;;;;;;;5.77;3.97;;;2.70;99.90;;;;;;4991543;28;20203;-68
2022/01/07 01:56:56;;;;;;;4.80;3.83;;;2.70;99.90;;;;;;4991855;28;20222;-67
2022/01/07 01:59:24;;;;;;;7.57;4.13;;;2.60;99.90;;;;;;4994194;28;20730;-68
2022/01/07 02:01:51;;;;;;;5.07;3.40;;;2.60;99.90;;;;;;4995176;28;20222;-67
2022/01/07 02:04:18;;;;;;;7.00;3.60;;;2.60;99.90;;;;;;4995411;28;20226;-66
2022/01/07 02:06:45;;;;;;;5.00;3.60;;;2.60;99.90;;;;;;4995532;28;20216;-66
2022/01/07 02:09:11;;;;;;;5.33;3.50;;;2.60;99.90;;;;;;4995167;28;20234;-66
2022/01/07 02:11:38;;;;;;;3.87;3.20;;;2.50;99.90;;;;;;4995401;28;20329;-66
2022/01/07 02:14:06;;;;;;;5.17;3.03;;;2.50;99.90;;;;;;4995012;28;20215;-67
2022/01/07 02:16:33;;;;;;;6.83;2.90;;;2.50;99.90;;;;;;4995285;28;20674;-67
2022/01/07 02:19:00;;;;;;;4.80;3.03;;;2.50;99.90;;;;;;4995178;28;20656;-66
2022/01/07 02:21:28;;;;;;;3.93;2.87;;;2.50;99.90;;;;;;4994935;28;20567;-67
2022/01/07 02:23:55;;;;;;;4.37;2.83;;;2.50;99.90;;;;;;4994830;28;20207;-66
2022/01/07 02:26:22;;;;;;;4.53;2.70;;;2.50;99.90;;;;;;4994898;28;20212;-68
2022/01/07 02:28:50;;;;;;;3.10;2.80;;;2.50;99.90;;;;;;4994491;28;20230;-69
2022/01/07 02:31:17;;;;;;;4.53;2.73;;;2.50;99.90;;;;;;4994332;28;20211;-67
2022/01/07 02:33:44;;;;;;;3.50;2.90;;;2.50;99.90;;;;;;4994813;28;20258;-67
2022/01/07 02:36:13;;;;;;;4.37;2.80;;;2.40;99.90;;;;;;4994480;28;20199;-67
2022/01/07 02:38:41;;;;;;;3.33;2.60;;;2.40;99.90;;;;;;4994729;28;20196;-67
2022/01/07 02:41:08;;;;;;;2.80;2.50;;;2.40;99.90;;;;;;4994571;28;20211;-66
2022/01/07 02:43:35;;;;;;;3.90;2.73;;;2.30;99.90;;;;;;4994613;28;20234;-67
2022/01/07 02:46:02;;;;;;;2.63;2.43;;;2.30;99.90;;;;;;4994552;28;20215;-68
2022/01/07 02:48:28;;;;;;;5.00;2.43;;;2.30;99.90;;;;;;4994490;28;20230;-68
2022/01/07 02:50:55;;;;;;;3.57;2.50;;;2.20;99.90;;;;;;4994546;28;20207;-66
2022/01/07 02:53:22;;;;;;;3.87;2.10;;;2.20;99.90;;;;;;4994177;28;20222;-68
2022/01/07 02:55:51;;;;;;;2.77;2.50;;;2.20;99.90;;;;;;4994436;28;20688;-68
2022/01/07 02:58:18;;;;;;;5.63;3.20;;;2.10;99.90;;;;;;4994079;28;20204;-68
2022/01/07 03:00:45;;;;;;;2.93;2.33;;;2.00;99.90;;;;;;4993969;28;20270;-68
2022/01/07 03:03:12;;;;;;;3.03;2.00;;;1.80;99.90;;;;;;4994036;28;20203;-68
2022/01/07 03:05:41;;;;;;;2.17;1.97;;;1.60;99.90;;;;;;4993540;28;20210;-68
2022/01/07 03:08:08;;;;;;;1.77;1.67;;;1.40;99.90;;;;;;4993749;28;20579;-68
2022/01/07 03:10:35;;;;;;;3.57;1.80;;;1.30;99.90;;;;;;4992838;28;20562;-68
2022/01/07 03:13:04;;;;;;;2.33;1.80;;;1.20;99.90;;;;;;4993811;28;20203;-69
2022/01/07 03:15:34;;;;;;;2.10;1.80;;;1.20;99.90;;;;;;4993517;28;20210;-69
2022/01/07 03:18:01;;;;;;;1.93;1.73;;;1.20;99.90;;;;;;4993921;28;20734;-68
2022/01/07 03:20:28;;;;;;;2.10;1.80;;;1.20;99.90;;;;;;4994044;28;20207;-68
2022/01/07 03:22:56;;;;;;;2.47;2.10;;;1.20;99.90;;;;;;4992997;28;20203;-68
2022/01/07 03:25:23;;;;;;;2.10;1.90;;;1.20;99.90;;;;;;4993715;28;20195;-66
2022/01/07 03:27:50;;;;;;;2.10;1.90;;;1.20;99.90;;;;;;4993437;28;20220;-68
2022/01/07 03:30:19;;;;;;;4.70;2.20;;;1.20;99.90;;;;;;4993522;28;20567;-69
2022/01/07 03:32:46;;;;;;;3.10;2.27;;;1.20;99.90;;;;;;4993434;28;20207;-68
2022/01/07 03:35:13;;;;;;;3.03;2.20;;;1.20;99.90;;;;;;4993183;28;20215;-69
2022/01/07 03:37:41;;;;;;;3.40;2.50;;;1.30;99.90;;;;;;4993311;28;20204;-68
2022/01/07 03:40:10;;;;;;;3.07;2.30;;;1.30;99.90;;;;;;4992910;28;20290;-68
2022/01/07 03:42:37;;;;;;;2.83;2.20;;;1.30;99.90;;;;;;4993022;28;20550;-69
2022/01/07 03:45:04;;;;;;;3.70;2.00;;;1.30;99.90;;;;;;4992808;28;20243;-68
2022/01/07 03:47:33;;;;;;;2.37;2.10;;;1.30;99.90;;;;;;4993014;28;20219;-68
2022/01/07 03:49:59;;;;;;;3.03;2.00;;;1.30;99.90;;;;;;4992867;28;20203;-69
2022/01/07 03:52:26;;;;;;;2.23;1.90;;;1.30;99.90;;;;;;4993223;28;20293;-67
2022/01/07 03:54:53;;;;;;;3.97;2.20;;;1.30;99.90;;;;;;4993051;28;20221;-67
2022/01/07 03:57:20;;;;;;;2.93;2.13;;;1.30;99.90;;;;;;4993073;28;20207;-67
2022/01/07 03:59:47;;;;;;;3.33;2.33;;;1.30;99.90;;;;;;4992786;28;20743;-68
2022/01/07 04:02:14;;;;;;;3.27;2.63;;;1.30;99.90;;;;;;4993030;28;20210;-69
2022/01/07 04:04:42;;;;;;;2.87;2.47;;;1.40;99.90;;;;;;4992487;28;20207;-69
2022/01/07 04:07:08;;;;;;;4.33;2.60;;;1.40;99.90;;;;;;4992960;28;20218;-69
2022/01/07 04:09:35;;;;;;;3.17;2.40;;;1.40;99.90;;;;;;4992843;28;20711;-69
2022/01/07 04:12:03;;;;;;;3.47;2.33;;;1.40;99.90;;;;;;4992586;28;20687;-67
2022/01/07 04:14:30;;;;;;;2.77;2.20;;;1.40;99.90;;;;;;4992902;28;20234;-69
2022/01/07 04:16:59;;;;;;;2.47;1.90;;;1.40;99.90;;;;;;4992654;28;20210;-68
2022/01/07 04:19:26;;;;;;;2.40;1.90;;;1.40;99.90;;;;;;4992642;28;20290;-67
2022/01/07 04:21:54;;;;;;;2.43;2.00;;;1.40;99.90;;;;;;4992572;28;20204;-67
2022/01/07 04:24:21;;;;;;;3.40;2.00;;;1.40;99.90;;;;;;4992469;28;20207;-68
2022/01/07 04:26:48;;;;;;;3.47;2.10;;;1.40;99.90;;;;;;4992224;28;20214;-67
2022/01/07 04:29:14;;;;;;;3.63;1.90;;;1.40;99.90;;;;;;4992487;28;20231;-68
2022/01/07 04:31:41;;;;;;;2.67;2.10;;;1.40;99.90;;;;;;4992651;28;20682;-67
2022/01/07 04:34:08;;;;;;;4.93;2.90;;;1.40;99.90;;;;;;4992155;28;20211;-66
2022/01/07 04:36:36;;;;;;;2.77;2.20;;;1.40;99.90;;;;;;4992671;28;20871;-67
2022/01/07 04:39:04;;;;;;;3.00;2.30;;;1.40;99.90;;;;;;4992223;28;20715;-68
2022/01/07 04:41:31;;;;;;;3.20;2.27;;;1.40;99.90;;;;;;4991944;28;20379;-67
2022/01/07 04:43:58;;;;;;;4.87;2.30;;;1.40;99.90;;;;;;4992503;28;20586;-67
2022/01/07 04:46:25;;;;;;;2.30;2.10;;;1.40;99.90;;;;;;4992744;28;20617;-69
2022/01/07 04:48:51;;;;;;;2.87;2.27;;;1.40;99.90;;;;;;4992338;28;20231;-68
2022/01/07 04:51:18;;;;;;;2.37;2.07;;;1.40;99.90;;;;;;4992495;28;20203;-67
2022/01/07 04:53:45;;;;;;;2.67;2.10;;;1.40;99.90;;;;;;4991904;28;20203;-67
2022/01/07 04:56:13;;;;;;;4.03;2.30;;;1.40;99.90;;;;;;4992407;28;20210;-68
2022/01/07 04:58:40;;;;;;;2.77;2.23;;;1.40;99.90;;;;;;4991754;28;20207;-68
2022/01/07 05:01:07;;;;;;;2.30;2.10;;;1.30;99.90;;;;;;4992302;28;20660;-67
2022/01/07 05:03:33;;;;;;;3.63;2.50;;;1.30;99.90;;;;;;4992182;28;20210;-66
2022/01/07 05:06:14;;;;;;;3.53;2.30;;;1.30;99.90;;;;;;4992112;28;20695;-67
2022/01/07 05:08:41;;;;;;;4.50;2.43;;;1.20;99.90;;;;;;4992040;28;20625;-67
2022/01/07 05:11:08;;;;;;;2.60;2.20;;;1.20;99.90;;;;;;4992173;28;20695;-66
2022/01/07 05:13:36;;;;;;;3.37;2.40;;;1.20;99.90;;;;;;4991811;28;20200;-67
2022/01/07 05:16:02;;;;;;;4.00;2.57;;;1.20;99.90;;;;;;4991828;28;20652;-66
2022/01/07 05:18:29;;;;;;;2.47;2.27;;;1.20;99.90;;;;;;4991943;28;20653;-66
2022/01/07 05:20:56;;;;;;;3.60;2.47;;;1.20;99.90;;;;;;4992171;28;20230;-69
2022/01/07 05:23:23;;;;;;;3.40;2.57;;;1.20;99.90;;;;;;4992373;28;20207;-66
2022/01/07 05:25:50;;;;;;;2.70;2.20;;;1.10;99.90;;;;;;4992123;28;20208;-67
2022/01/07 05:28:17;;;;;;;2.50;1.90;;;1.00;99.90;;;;;;4992252;28;20223;-67
2022/01/07 05:30:45;;;;;;;2.20;2.00;;;0.70;99.90;;;;;;4992079;28;20214;-67
2022/01/07 05:33:12;;;;;;;1.97;1.80;;;0.40;99.90;;;;;;4993397;28;20203;-68
2022/01/07 05:35:39;;;;;;;1.70;1.60;;;0.30;99.90;;;;;;4995932;28;20218;-68
2022/01/07 05:38:06;;;;;;;2.03;1.70;;;0.20;99.90;;;;;;4995533;28;20306;-68
2022/01/07 05:40:32;;;;;;;2.70;1.63;;;0.10;99.90;;;;;;4995805;28;20362;-68
2022/01/07 05:42:59;;;;;;;3.27;1.70;;;0.10;99.90;;;;;;4995800;28;20231;-68
2022/01/07 05:45:26;;;;;;;1.50;1.40;;;0.00;99.90;;;;;;4995986;28;20677;-68
2022/01/07 05:47:54;;;;;;;2.23;1.80;;;0.00;99.90;;;;;;4995602;28;20207;-67
2022/01/07 05:50:22;;;;;;;1.70;1.60;;;0.00;99.90;;;;;;4995561;28;20223;-66
2022/01/07 05:52:49;;;;;;;1.80;1.70;;;0.00;99.90;;;;;;4995743;28;20262;-68
2022/01/07 05:55:16;;;;;;;1.60;1.50;;;-0.10;99.90;;;;;;4995659;28;20217;-66
2022/01/07 05:57:42;;;;;;;4.40;1.70;;;-0.10;99.90;;;;;;4995677;28;20207;-68
2022/01/07 06:00:12;;;;;;;1.70;1.50;;;-0.10;99.90;;;;;;4995028;28;20227;-70
2022/01/07 06:02:39;;;;;;;3.77;1.70;;;-0.10;99.90;;;;;;4995333;28;20211;-69
2022/01/07 06:05:08;;;;;;;2.30;1.70;;;-0.10;99.90;;;;;;4995472;28;20212;-68
2022/01/07 06:07:34;;;;;;;5.20;1.70;;;-0.10;99.90;;;;;;4995179;28;20202;-69
2022/01/07 06:10:01;;;;;;;2.10;1.90;;;-0.10;99.90;;;;;;4994695;28;20225;-69
2022/01/07 06:12:28;;;;;;;2.17;1.93;;;-0.10;99.90;;;;;;4995738;28;20204;-69
2022/01/07 06:14:55;;;;;;;2.17;1.97;;;-0.10;99.90;;;;;;4995329;28;20210;-66
2022/01/07 06:17:21;;;;;;;2.83;1.90;;;-0.20;99.90;;;;;;4996063;28;20207;-67
2022/01/07 06:19:48;;;;;;;2.30;1.87;;;-0.20;99.90;;;;;;4995486;28;20214;-67
2022/01/07 06:22:16;;;;;;;3.10;2.10;;;-0.20;99.90;;;;;;4995069;28;20670;-68
2022/01/07 06:24:43;;;;;;;2.03;1.83;;;-0.20;99.90;;;;;;4995569;28;20214;-66
2022/01/07 06:27:11;;;;;;;2.00;1.80;;;-0.20;99.90;;;;;;4994673;28;20218;-70
2022/01/07 06:29:39;;;;;;;2.47;1.87;;;-0.20;99.90;;;;;;4994926;28;20231;-66
2022/01/07 06:32:07;;;;;;;2.27;1.90;;;-0.20;99.90;;;;;;4995171;28;20208;-68
2022/01/07 06:34:35;;;;;;;2.97;1.90;;;-0.20;99.90;;;;;;4994776;28;20200;-67
2022/01/07 06:37:02;;;;;;;3.37;1.90;;;-0.20;99.90;;;;;;4995666;28;20200;-69
2022/01/07 06:39:30;;;;;;;2.43;1.90;;;-0.30;99.90;;;;;;4994703;28;20204;-69
2022/01/07 06:41:58;;;;;;;3.23;2.00;;;-0.30;99.90;;;;;;4995123;28;20214;-69
2022/01/07 06:44:25;;;;;;;2.20;1.90;;;-0.20;99.90;;;;;;4975116;28;20279;-68
2022/01/07 06:46:52;;;;;;;2.33;2.10;;;-0.20;99.90;;;;;;4975706;28;20291;-67
2022/01/07 06:49:19;;;;;;;3.43;2.23;;;-0.20;99.90;;;;;;4975429;28;20471;-68
2022/01/07 06:51:46;;;;;;;2.60;2.10;;;-0.20;99.90;;;;;;4983629;28;20732;-66
2022/01/07 06:54:13;;;;;;;3.10;2.20;;;-0.20;99.90;;;;;;4994664;28;20233;-68
2022/01/07 06:56:42;;;;;;;4.27;2.20;;;-0.20;99.90;;;;;;4994285;28;20293;-67
2022/01/07 06:59:09;;;;;;;3.60;2.20;;;-0.20;99.90;;;;;;4993956;28;20253;-67
2022/01/07 07:01:36;;;;;;;4.07;2.40;;;-0.20;99.90;;;;;;4993879;28;20203;-67
2022/01/07 07:04:03;;;;;;;4.43;2.20;;;-0.20;99.90;;;;;;4994315;28;20214;-69
2022/01/07 07:06:30;;;;;;;2.30;2.10;;;-0.10;99.90;;;;;;4994143;28;20200;-70
2022/01/07 07:08:57;;;;;;;2.90;2.10;;;-0.20;99.90;;;;;;4994221;28;20224;-68
2022/01/07 07:11:24;;;;;;;4.67;2.50;;;-0.20;99.90;;;;;;4994181;28;20668;-69
2022/01/07 07:13:52;;;;;;;3.27;2.50;;;-0.10;99.90;;;;;;4993724;28;20254;-68
2022/01/07 07:16:19;;;;;;;2.93;2.20;;;-0.10;99.90;;;;;;4993966;28;20207;-66
2022/01/07 07:18:45;;;;;;;4.03;2.50;;;-0.10;99.90;;;;;;4993963;28;20295;-70
2022/01/07 07:21:12;;;;;;;4.10;2.90;;;-0.10;99.90;;;;;;4993800;28;20209;-72
2022/01/07 07:23:39;;;;;;;3.70;2.67;;;-0.10;99.90;;;;;;4993930;28;20203;-69
2022/01/07 07:26:06;;;;;;;4.10;2.77;;;-0.20;99.90;;;;;;4994053;28;20214;-69
2022/01/07 07:28:35;;;;;;;3.60;2.50;;;-0.10;99.90;;;;;;4993329;28;20207;-67
2022/01/07 07:31:06;;;;;;;3.13;2.50;;;-0.10;99.90;;;;;;4993592;28;20302;-68
2022/01/07 07:33:55;;;;;;;5.70;3.07;;;-0.10;99.90;;;;;;4993653;28;20227;-70
2022/01/07 07:36:30;;;;;;;3.63;2.53;;;-0.10;99.90;;;;;;4993510;28;20541;-67
2022/01/07 07:38:58;;;;;;;3.37;2.70;;;-0.10;99.90;;;;;;4993356;28;20207;-69
2022/01/07 07:41:25;;;;;;;3.87;2.53;;;-0.10;99.90;;;;;;4992913;28;20305;-68
2022/01/07 07:43:52;;;;;;;3.47;2.70;;;-0.10;99.90;;;;;;4993449;28;20227;-68
2022/01/07 07:46:21;;;;;;;4.57;2.60;;;0.00;99.90;;;;;;4992839;28;20203;-68
2022/01/07 07:48:49;;;;;;;3.10;2.50;;;-0.10;99.90;;;;;;4993319;28;20676;-68
2022/01/07 07:51:16;;;;;;;3.13;2.50;;;0.00;99.90;;;;;;4993162;28;20639;-67
2022/01/07 07:53:43;;;;;;;4.07;2.57;;;0.00;99.90;;;;;;4992954;28;20266;-67
2022/01/07 07:56:12;;;;;;;3.60;2.80;;;0.00;99.90;;;;;;4992428;28;20534;-68
2022/01/07 07:58:39;;;;;;;3.57;2.43;;;0.10;99.90;;;;;;4992620;28;20203;-67
2022/01/07 08:01:07;;;;;;;4.10;2.80;;;0.10;99.90;;;;;;4992829;28;20222;-67
2022/01/07 08:03:35;;;;;;;2.77;2.47;;;0.00;99.90;;;;;;4992929;28;20577;-69
2022/01/07 08:06:02;;;;;;;3.70;2.57;;;0.10;99.90;;;;;;4992557;28;20203;-66
2022/01/07 08:08:29;;;;;;;3.53;2.40;;;0.00;99.90;;;;;;4992929;28;20233;-68
2022/01/07 08:10:59;;;;;;;3.10;2.53;;;0.00;99.90;;;;;;4992596;28;20226;-69
2022/01/07 08:13:30;;;;;;;4.60;2.77;;;0.00;99.90;;;;;;4992486;28;20212;-70
2022/01/07 08:16:00;;;;;;;3.73;2.77;;;0.00;99.90;;;;;;4992067;28;20192;-67
2022/01/07 08:18:27;;;;;;;4.93;3.20;;;0.10;99.90;;;;;;4992628;28;20813;-68
2022/01/07 08:20:56;;;;;;;3.60;2.63;;;0.10;99.90;;;;;;4993046;28;20668;-68
2022/01/07 08:23:23;;;;;;;5.33;2.67;;;0.20;99.90;;;;;;4991852;28;20203;-69
2022/01/07 08:25:50;;;;;;;2.93;2.20;;;0.20;99.90;;;;;;4992309;28;20290;-67
2022/01/07 08:28:18;;;;;;;4.93;2.77;;;0.20;99.90;;;;;;4992593;28;20203;-67
2022/01/07 08:31:13;;;;;;;3.13;2.43;;;0.20;99.90;;;;;;4992436;28;20262;-68
2022/01/07 08:36:28;;;;;;;3.30;2.37;;;0.20;99.90;;;;;;4991967;28;20691;-68
2022/01/07 08:38:56;;;;;;;4.13;2.60;;;0.20;99.90;;;;;;4992842;28;20207;-70
2022/01/07 08:41:25;;;;;;;4.03;2.80;;;0.10;99.90;;;;;;4992623;28;20545;-69
2022/01/07 08:43:51;;;;;;;4.63;2.50;;;0.00;99.90;;;;;;4992181;28;20277;-68
2022/01/07 08:46:19;;;;;;;3.30;2.37;;;0.00;99.90;;;;;;4992184;28;20207;-70
2022/01/07 08:48:46;;;;;;;2.60;2.20;;;-0.20;99.90;;;;;;4992181;28;20211;-67
2022/01/07 08:51:13;;;;;;;3.70;2.30;;;-0.40;99.90;;;;;;4991526;28;20223;-69
2022/01/07 08:53:41;;;;;;;3.63;2.40;;;-0.40;99.90;;;;;;4992508;28;20210;-67
2022/01/07 08:56:09;;;;;;;3.90;2.20;;;-0.50;99.90;;;;;;4992644;28;20203;-69
2022/01/07 08:58:36;;;;;;;3.97;2.20;;;-0.50;99.90;;;;;;4992489;28;20294;-69
2022/01/07 09:01:03;;;;;;;5.70;3.60;;;-0.50;99.90;;;;;;4992471;28;20287;-68
2022/01/07 09:03:30;;;;;;;5.03;2.70;;;-0.40;99.90;;;;;;4992177;28;20218;-68
2022/01/07 09:05:57;;;;;;;3.53;2.57;;;-0.40;99.90;;;;;;4992194;28;20207;-69
2022/01/07 09:08:23;;;;;;;3.33;2.33;;;-0.40;99.90;;;;;;4993788;28;20691;-67
2022/01/07 09:10:52;;;;;;;5.17;2.10;;;-0.30;99.90;;;;;;4996121;28;20323;-69
2022/01/07 09:13:20;;;;;;;3.90;1.87;;;-0.30;99.90;;;;;;4995591;28;20265;-67
2022/01/07 09:15:46;;;;;;;2.90;2.03;;;-0.40;99.90;;;;;;4996342;28;20752;-67
2022/01/07 09:18:14;;;;;;;3.37;2.17;;;-0.30;99.90;;;;;;4995530;28;20203;-67
2022/01/07 09:20:43;;;;;;;2.73;2.30;;;-0.30;99.90;;;;;;4996201;28;20207;-67
2022/01/07 09:23:11;;;;;;;2.50;2.03;;;-0.30;99.90;;;;;;4995818;28;20628;-66
2022/01/07 09:25:38;;;;;;;3.37;2.10;;;-0.30;99.90;;;;;;4996143;28;20222;-68
2022/01/07 09:28:08;;;;;;;3.60;2.20;;;-0.20;99.90;;;;;;4995675;28;20234;-67
2022/01/07 09:30:37;;;;;;;4.63;2.33;;;-0.20;99.90;;;;;;4995748;28;20684;-69
2022/01/07 09:33:04;;;;;;;4.63;2.40;;;-0.10;99.90;;;;;;4996233;28;20207;-69
2022/01/07 09:35:31;;;;;;;5.50;2.30;;;-0.10;99.90;;;;;;4995835;28;20277;-69
2022/01/07 09:37:58;;;;;;;4.67;2.20;;;-0.10;99.90;;;;;;4995806;28;20211;-67
2022/01/07 09:40:24;;;;;;;4.97;2.50;;;0.00;99.90;;;;;;4994863;28;20302;-69
2022/01/07 09:42:56;;;;;;;3.70;2.60;;;0.00;99.90;;;;;;4995077;28;20231;-67
2022/01/07 09:45:26;;;;;;;5.83;2.80;;;0.00;99.90;;;;;;4994075;28;20214;-69
2022/01/07 09:47:53;;;;;;;7.70;3.87;;;0.10;99.90;;;;;;4995242;28;20223;-68
2022/01/07 09:50:20;;;;;;;3.27;2.30;;;0.10;99.90;;;;;;4995378;28;20227;-68
2022/01/07 09:52:47;;;;;;;4.27;2.10;;;0.20;99.90;;;;;;4994702;28;20575;-68
2022/01/07 09:55:14;;;;;;;2.73;1.90;;;0.20;99.90;;;;;;4995300;28;20214;-68
2022/01/07 09:57:41;;;;;;;2.93;2.20;;;0.30;99.90;;;;;;4995173;28;20210;-69
2022/01/07 10:00:11;;;;;;;4.13;2.30;;;0.30;99.90;;;;;;4994551;28;20233;-68
2022/01/07 10:02:58;;;;;;;3.60;2.17;;;0.40;99.90;;;;;;4996034;28;20211;-68
2022/01/07 10:05:24;;;;;;;5.07;2.30;;;0.50;99.90;;;;;;4995323;28;20202;-68
2022/01/07 10:07:51;;;;;;;2.30;1.90;;;0.50;99.90;;;;;;4994866;28;20211;-68
2022/01/07 10:10:19;;;;;;;3.13;2.10;;;0.50;99.90;;;;;;4994843;28;20237;-67
2022/01/07 10:12:55;;;;;;;2.57;2.03;;;0.50;99.90;;;;;;4994917;28;20239;-70
2022/01/07 10:15:23;;;;;;;4.87;2.40;;;0.50;99.90;;;;;;4994948;28;20191;-68
2022/01/07 10:18:03;;;;;;;5.00;1.90;;;0.30;99.90;;;;;;4995060;28;20632;-67
2022/01/07 10:20:31;;;;;;;2.40;1.90;;;0.20;99.90;;;;;;4994013;28;20200;-67
2022/01/07 10:23:01;;;;;;;2.67;1.83;;;0.20;99.90;;;;;;4994953;28;20693;-67
2022/01/07 10:25:30;;;;;;;3.47;2.00;;;0.20;99.90;;;;;;4994141;28;20209;-65
2022/01/07 10:28:06;;;;;;;5.37;2.20;;;0.20;99.90;;;;;;4995118;28;20677;-65
2022/01/07 10:30:40;;;;;;;2.23;1.80;;;0.20;99.90;;;;;;4994744;28;20257;-65
2022/01/07 10:33:23;;;;;;;1.70;1.60;;;0.20;99.90;;;;;;4993355;28;20204;-67
2022/01/07 10:35:52;;;;;;;3.03;1.90;;;0.20;99.90;;;;;;4994549;28;20219;-67
2022/01/07 10:38:20;;;;;;;2.17;1.67;;;0.20;99.90;;;;;;4993952;28;20277;-65
2022/01/07 10:40:48;;;;;;;3.10;2.00;;;0.20;99.90;;;;;;4995024;28;20672;-67
2022/01/07 10:43:17;;;;;;;3.23;1.90;;;0.30;99.90;;;;;;4994229;28;20657;-66
2022/01/07 10:45:46;;;;;;;3.00;1.60;;;0.30;99.90;;;;;;4994680;28;20204;-67
2022/01/07 10:48:14;;;;;;;2.60;1.90;;;0.30;99.90;;;;;;4994437;28;20601;-66
2022/01/07 10:50:47;;;;;;;3.33;1.97;;;0.30;99.90;;;;;;4994720;28;20563;-65
2022/01/07 10:53:25;;;;;;;3.53;2.07;;;0.30;99.90;;;;;;4994401;28;20203;-67
2022/01/07 10:56:11;;;;;;;12.40;6.00;;;0.40;99.90;;;;;;4994061;28;20207;-67
2022/01/07 10:59:01;;;;;;;4.97;2.40;;;0.50;99.90;;;;;;4994264;28;20199;-65
2022/01/07 11:01:39;;;;;;;3.40;1.90;;;0.60;99.90;;;;;;4994730;28;20527;-67
2022/01/07 11:04:09;;;;;;;3.30;1.83;;;0.50;99.90;;;;;;4994542;28;20574;-68
2022/01/07 11:06:38;;;;;;;4.57;2.00;;;0.60;99.90;;;;;;4994732;28;20207;-65
2022/01/07 11:09:09;;;;;;;4.23;1.80;;;0.60;99.90;;;;;;4994263;28;20207;-68
2022/01/07 11:11:51;;;;;;;4.27;2.17;;;0.60;99.90;;;;;;4993839;28;20208;-65
2022/01/07 11:14:20;;;;;;;4.83;2.40;;;0.50;99.90;;;;;;4993934;28;20202;-68
2022/01/07 11:16:48;;;;;;;3.07;1.90;;;0.60;99.90;;;;;;4993250;28;20223;-68
2022/01/07 11:19:20;;;;;;;4.47;1.90;;;0.60;99.90;;;;;;4994304;28;20302;-67
2022/01/07 11:21:51;;;;;;;3.57;2.10;;;0.70;99.90;;;;;;4994127;28;20541;-66
2022/01/07 11:24:50;;;;;;;4.00;2.20;;;0.70;99.90;;;;;;4993917;28;20227;-66
2022/01/07 11:27:20;;;;;;;2.37;1.83;;;0.70;99.90;;;;;;4986343;28;20196;-67
2022/01/07 11:29:55;;;;;;;5.83;2.20;;;0.80;99.90;;;;;;4974889;28;20206;-67
2022/01/07 11:32:44;;;;;;;5.33;1.90;;;0.80;99.90;;;;;;4978072;28;20327;-68
2022/01/07 11:35:45;;;;;;;4.07;2.10;;;0.90;99.90;;;;;;4967421;28;20259;-67
2022/01/07 11:38:38;;;;;;;5.23;2.10;;;0.80;99.90;;;;;;4971448;28;20314;-66
2022/01/07 11:41:13;;;;;;;4.63;2.10;;;0.80;99.90;;;;;;4970955;28;20218;-67
2022/01/07 11:43:43;;;;;;;4.23;2.20;;;0.80;99.90;;;;;;4971419;28;20693;-67
2022/01/07 11:46:33;;;;;;;4.00;2.33;;;0.70;99.90;;;;;;4971068;28;20212;-66
2022/01/07 11:49:02;;;;;;;3.43;1.87;;;0.70;99.90;;;;;;4957068;28;20222;-66
2022/01/07 11:51:42;;;;;;;4.73;1.97;;;0.70;99.90;;;;;;4971126;28;20730;-68
2022/01/07 11:54:13;;;;;;;5.30;2.33;;;0.70;99.90;;;;;;4971096;28;20211;-66
2022/01/07 11:56:40;;;;;;;4.03;2.00;;;0.70;99.90;;;;;;4971527;28;20219;-65
2022/01/07 11:59:26;;;;;;;3.87;2.00;;;0.70;99.90;;;;;;4970938;28;20231;-68
2022/01/07 12:02:03;;;;;;;8.07;2.10;;;0.60;99.90;;;;;;4986030;28;20203;-65
2022/01/07 12:04:31;;;;;;;3.73;2.10;;;0.70;99.90;;;;;;4993043;28;20203;-68
2022/01/07 12:07:01;;;;;;;3.57;1.93;;;0.70;99.90;;;;;;4992645;28;20226;-67
2022/01/07 12:09:40;;;;;;;5.07;2.40;;;0.70;99.90;;;;;;4992862;28;20212;-66
2022/01/07 12:12:10;;;;;;;3.27;2.20;;;0.80;99.90;;;;;;4993186;28;20222;-67
2022/01/07 12:14:40;;;;;;;3.67;2.37;;;0.80;99.90;;;;;;4992494;28;20203;-66
2022/01/07 12:17:13;;;;;;;4.77;2.57;;;0.90;99.90;;;;;;4992159;28;20295;-66
2022/01/07 12:20:16;;;;;;;7.47;3.63;;;0.90;99.90;;;;;;4991864;28;20199;-65
2022/01/07 12:22:54;;;;;;;3.33;2.20;;;0.90;99.90;;;;;;4972961;28;20208;-66
2022/01/07 12:25:24;;;;;;;3.47;2.00;;;1.00;99.90;;;;;;4973777;28;20246;-68
2022/01/07 12:28:05;;;;;;;2.63;1.90;;;1.10;99.90;;;;;;4992001;28;20285;-66
2022/01/07 12:30:32;;;;;;;3.70;2.30;;;1.10;99.90;;;;;;4992329;28;20218;-66
2022/01/07 12:33:06;;;;;;;3.17;2.10;;;1.10;99.90;;;;;;4991687;28;20639;-67
2022/01/07 12:35:33;;;;;;;5.90;2.37;;;1.20;99.90;;;;;;4990413;28;20198;-65
2022/01/07 12:38:00;;;;;;;3.63;2.13;;;1.10;99.90;;;;;;4988167;28;20217;-68
2022/01/07 12:40:28;;;;;;;6.23;2.70;;;1.10;99.90;;;;;;4992433;28;20220;-65
2022/01/07 12:42:55;;;;;;;4.03;2.70;;;1.10;99.90;;;;;;4992169;28;20571;-67
2022/01/07 12:45:22;;;;;;;5.43;2.60;;;1.00;99.90;;;;;;4991835;28;20211;-67
2022/01/07 12:47:52;;;;;;;5.57;2.50;;;0.90;99.90;;;;;;4992220;28;20684;-65
2022/01/07 12:50:19;;;;;;;5.87;3.13;;;0.80;99.90;;;;;;4992377;28;20683;-67
2022/01/07 12:52:46;;;;;;;4.50;2.83;;;0.80;99.90;;;;;;4992423;28;20688;-67
2022/01/07 12:55:16;;;;;;;9.27;4.60;;;0.70;99.90;;;;;;4992116;28;20209;-67
2022/01/07 12:57:47;;;;;;;4.33;2.93;;;0.60;99.90;;;;;;4992379;28;20643;-66
2022/01/07 13:00:17;;;;;;;3.67;2.20;;;0.60;99.90;;;;;;4991722;28;20235;-65
2022/01/07 13:02:45;;;;;;;2.50;2.07;;;0.60;99.90;;;;;;4991165;28;20312;-67
2022/01/07 13:05:17;;;;;;;3.33;1.90;;;0.60;99.90;;;;;;4995199;28;20199;-68
2022/01/07 13:07:45;;;;;;;2.93;1.90;;;0.60;99.90;;;;;;4981796;28;20198;-65